Time;durP1;ratioP1;P1;durP2;ratioP2;P2;SDS_P1;SDS_P2;PMS_P1;PMS_P2;Temp;Humidity;BMP_temperature;BMP_pressure;BME280_temperature;BME280_humidity;BME280_pressure;Samples;Min_cycle;Max_cycle;Signal;HPM_P1;HPM_P2
2021/12/21 00:00:18;;;;;;;;;39.75;31.50;;;;;6.85;58.00;101964.84;4983268;28;45208;-44
2021/12/21 00:02:47;;;;;;;;;35.25;33.00;;;;;6.80;58.17;101961.25;4982810;28;46020;-46
2021/12/21 00:05:18;;;;;;;;;41.00;33.00;;;;;6.79;58.16;101965.59;4965576;28;45420;-46
2021/12/21 00:07:45;;;;;;;;;36.50;29.00;;;;;6.75;58.23;101963.75;4983077;28;45296;-48
2021/12/21 00:10:12;;;;;;;;;46.00;35.50;;;;;6.71;58.18;101958.47;4965435;28;45272;-47
2021/12/21 00:12:46;;;;;;;;;34.75;31.75;;;;;6.70;57.82;101954.94;4982469;28;46411;-45
2021/12/21 00:15:34;;;;;;;;;39.25;28.25;;;;;6.64;58.38;101944.38;4982959;28;45415;-45
2021/12/21 00:18:06;;;;;;;;;38.25;32.75;;;;;6.64;58.09;101949.59;4982996;28;45499;-46
2021/12/21 00:20:50;;;;;;;;;40.75;34.50;;;;;6.62;58.19;101943.47;4964422;28;45570;-46
2021/12/21 00:25:44;;;;;;;;;29.25;27.00;;;;;6.56;58.09;101940.72;4982523;28;45323;-44
2021/12/21 00:28:10;;;;;;;;;30.50;25.25;;;;;6.53;58.21;101938.03;4982636;28;45353;-45
2021/12/21 00:30:35;;;;;;;;;31.00;26.50;;;;;6.47;57.98;101946.63;4972667;28;45474;-46
2021/12/21 00:33:01;;;;;;;;;26.50;22.00;;;;;6.46;58.11;101943.13;4971942;28;47478;-48
2021/12/21 00:35:26;;;;;;;;;29.75;25.00;;;;;6.45;58.23;101937.88;4982578;28;45287;-45
2021/12/21 00:37:52;;;;;;;;;42.00;30.25;;;;;6.42;58.14;101938.69;4974193;28;45379;-44
2021/12/21 00:40:17;;;;;;;;;36.00;27.75;;;;;6.39;58.22;101936.00;4982228;28;45398;-46
2021/12/21 00:42:42;;;;;;;;;18.00;15.00;;;;;6.37;58.29;101932.47;4982259;28;46271;-46
2021/12/21 00:45:08;;;;;;;;;31.50;26.50;;;;;6.35;58.32;101934.16;4982463;28;45227;-44
2021/12/21 00:47:35;;;;;;;;;32.25;27.75;;;;;6.31;58.44;101924.50;4982693;28;45268;-45
2021/12/21 00:50:03;;;;;;;;;28.50;23.00;;;;;6.30;58.28;101931.47;4982240;28;45261;-44
2021/12/21 00:52:29;;;;;;;;;33.00;25.00;;;;;6.29;58.20;101928.81;4982220;28;47117;-45
2021/12/21 00:54:55;;;;;;;;;33.75;29.25;;;;;6.25;58.23;101924.38;4982090;28;45363;-43
2021/12/21 00:57:21;;;;;;;;;33.75;31.00;;;;;6.22;58.32;101924.31;4964788;28;45329;-44
2021/12/21 00:59:46;;;;;;;;;32.75;26.75;;;;;6.21;58.39;101932.97;4982071;28;45422;-43
2021/12/21 01:02:12;;;;;;;;;32.00;26.25;;;;;6.18;58.18;101926.84;4982097;28;45198;-43
2021/12/21 01:04:42;;;;;;;;;30.75;26.75;;;;;6.15;58.42;101921.56;4982053;28;45252;-45
2021/12/21 01:12:35;;;;;;;;;34.00;30.25;;;;;6.08;58.47;101921.38;4981801;28;45868;-46
2021/12/21 01:15:38;;;;;;;;;32.00;25.75;;;;;6.01;58.24;101912.50;4982031;28;45275;-45
2021/12/21 01:20:46;;;;;;;;;34.00;29.00;;;;;6.00;58.39;101918.59;4981949;28;45652;-45
2021/12/21 01:25:56;;;;;;;;;32.00;28.75;;;;;5.95;58.34;101914.94;4981622;28;45240;-45
2021/12/21 01:28:41;;;;;;;;;32.00;26.00;;;;;5.93;58.33;101908.81;4981884;28;45183;-49
2021/12/21 01:36:35;;;;;;;;;36.00;29.25;;;;;5.83;58.17;101905.97;4975023;28;45318;-44
2021/12/21 01:39:12;;;;;;;;;33.25;30.25;;;;;5.82;58.37;101904.25;4955470;28;45286;-46
2021/12/21 01:41:47;;;;;;;;;31.25;28.00;;;;;5.80;58.48;101908.53;4980038;28;45386;-45
2021/12/21 01:49:44;;;;;;;;;32.25;22.75;;;;;5.74;58.38;101915.34;4981320;28;45369;-47
2021/12/21 01:52:13;;;;;;;;;35.00;27.50;;;;;5.73;58.50;101918.78;4981493;28;45464;-44
2021/12/21 01:54:39;;;;;;;;;29.50;25.50;;;;;5.67;58.44;101914.28;4981230;28;45678;-45
2021/12/21 01:57:05;;;;;;;;;29.50;23.00;;;;;5.68;58.48;101913.44;4981300;28;45334;-46
2021/12/21 01:59:32;;;;;;;;;29.50;24.50;;;;;5.67;58.46;101909.06;4980123;28;45368;-47
2021/12/21 02:01:58;;;;;;;;;29.00;26.00;;;;;5.65;58.39;101914.25;4981309;28;45302;-43
2021/12/21 02:04:23;;;;;;;;;25.50;23.25;;;;;5.64;58.44;101914.22;4981134;28;45544;-48
2021/12/21 02:06:49;;;;;;;;;29.75;27.50;;;;;5.60;58.66;101912.38;4980013;28;45525;-43
2021/12/21 02:09:16;;;;;;;;;35.50;26.50;;;;;5.60;58.51;101912.38;4981117;28;45428;-46
2021/12/21 02:11:42;;;;;;;;;29.00;24.75;;;;;5.58;58.31;101914.06;4981168;28;45282;-44
2021/12/21 02:14:09;;;;;;;;;32.50;27.50;;;;;5.56;58.37;101916.63;4979563;28;45410;-45
2021/12/21 02:16:52;;;;;;;;;28.00;25.75;;;;;5.53;58.52;101917.44;4981082;28;45332;-45
2021/12/21 02:19:27;;;;;;;;;29.75;24.75;;;;;5.52;58.35;101904.34;4979940;28;45272;-46
2021/12/21 02:21:56;;;;;;;;;34.50;26.75;;;;;5.49;58.47;101907.75;4980882;28;45376;-45
2021/12/21 02:24:27;;;;;;;;;29.00;25.75;;;;;5.46;58.52;101904.19;4980649;28;47134;-46
2021/12/21 02:27:17;;;;;;;;;27.00;23.00;;;;;5.45;58.63;101895.50;4980809;28;45536;-44
2021/12/21 02:29:41;;;;;;;;;28.25;24.75;;;;;5.42;58.50;101890.22;4976785;28;45266;-48
2021/12/21 02:32:08;;;;;;;;;31.50;27.00;;;;;5.40;58.62;101891.00;4946714;28;45509;-46
2021/12/21 02:34:33;;;;;;;;;23.75;21.25;;;;;5.39;58.45;101890.13;4980796;28;46092;-43
2021/12/21 02:36:59;;;;;;;;;24.00;21.00;;;;;5.36;58.79;101884.84;4954863;28;45243;-47
2021/12/21 02:39:26;;;;;;;;;32.00;23.75;;;;;5.35;58.69;101885.69;4980914;28;45323;-47
2021/12/21 02:41:51;;;;;;;;;26.50;24.25;;;;;5.34;58.58;101878.69;4980177;28;45369;-47
2021/12/21 02:44:17;;;;;;;;;31.25;24.00;;;;;5.32;58.54;101880.38;4980693;28;45654;-44
2021/12/21 02:46:44;;;;;;;;;29.25;27.00;;;;;5.29;58.60;101883.78;4980576;28;45389;-45
2021/12/21 02:49:10;;;;;;;;;30.00;26.25;;;;;5.28;58.88;101878.53;4963434;28;45295;-49
2021/12/21 02:51:44;;;;;;;;;21.75;20.00;;;;;5.26;58.59;101875.00;4980427;28;45457;-45
2021/12/21 02:54:12;;;;;;;;;32.75;25.25;;;;;5.24;58.56;101871.47;4980628;28;46041;-46
2021/12/21 02:56:38;;;;;;;;;35.00;24.50;;;;;5.17;58.80;101866.09;4980284;28;45433;-46
2021/12/21 02:59:04;;;;;;;;;33.25;20.75;;;;;5.19;58.93;101859.22;4980545;28;45259;-44
2021/12/21 03:01:30;;;;;;;;;26.50;22.25;;;;;5.17;58.69;101863.50;4980418;28;45368;-45
2021/12/21 03:03:56;;;;;;;;;26.75;25.50;;;;;5.16;59.03;101860.88;4980335;28;45307;-45
2021/12/21 03:11:55;;;;;;;;;26.75;24.75;;;;;5.09;58.79;101858.94;4980379;28;45152;-43
2021/12/21 03:14:25;;;;;;;;;29.75;24.00;;;;;5.09;58.59;101861.53;4979965;28;46273;-44
2021/12/21 03:16:51;;;;;;;;;27.25;18.75;;;;;5.08;59.04;101864.97;4980446;28;45239;-48
2021/12/21 03:19:16;;;;;;;;;24.25;22.50;;;;;5.04;59.08;101859.69;4962715;28;45286;-49
2021/12/21 03:21:42;;;;;;;;;19.50;17.25;;;;;5.05;58.64;101864.03;4980277;28;45519;-48
2021/12/21 03:24:09;;;;;;;;;26.25;23.00;;;;;5.03;58.85;101865.75;4979905;28;45466;-46
2021/12/21 03:26:34;;;;;;;;;25.00;22.00;;;;;5.01;58.85;101864.81;4980041;28;45384;-45
2021/12/21 03:29:00;;;;;;;;;20.25;20.25;;;;;5.00;59.08;101873.47;4979993;28;45497;-43
2021/12/21 03:31:25;;;;;;;;;31.00;28.75;;;;;5.00;58.72;101870.00;4963703;28;45409;-46
2021/12/21 03:33:51;;;;;;;;;24.50;20.75;;;;;4.97;59.00;101856.88;4977147;28;46384;-45
2021/12/21 03:36:17;;;;;;;;;25.50;23.00;;;;;4.96;58.71;101849.91;4956470;28;45263;-44
2021/12/21 03:38:51;;;;;;;;;22.50;17.25;;;;;4.92;58.93;101854.16;4977026;28;45240;-44
2021/12/21 03:41:18;;;;;;;;;23.00;22.75;;;;;4.95;59.08;101861.19;4979786;28;45398;-43
2021/12/21 03:43:44;;;;;;;;;29.50;20.75;;;;;4.94;58.90;101851.59;4962281;28;47101;-46
2021/12/21 03:46:12;;;;;;;;;25.25;20.00;;;;;4.93;58.70;101857.63;4962433;28;45296;-43
2021/12/21 03:48:43;;;;;;;;;27.50;20.25;;;;;4.92;58.74;101861.06;4979868;28;46449;-44
2021/12/21 03:51:09;;;;;;;;;26.25;19.75;;;;;4.91;58.89;101856.72;4979983;28;45385;-48
2021/12/21 03:53:36;;;;;;;;;24.75;20.50;;;;;4.88;58.83;101858.41;4979628;28;45209;-47
2021/12/21 03:56:22;;;;;;;;;20.50;17.75;;;;;4.87;58.50;101863.56;4982896;28;45249;-44
2021/12/21 03:58:47;;;;;;;;;24.25;21.75;;;;;4.85;58.89;101857.44;4983144;28;45494;-44
2021/12/21 04:01:13;;;;;;;;;24.25;19.25;;;;;4.85;59.06;101862.63;4982939;28;45442;-46
2021/12/21 04:03:39;;;;;;;;;24.50;20.25;;;;;4.83;59.05;101861.69;4983042;28;47033;-46
2021/12/21 04:06:05;;;;;;;;;23.75;20.50;;;;;4.81;59.16;101859.06;4982945;28;45333;-48
2021/12/21 04:08:31;;;;;;;;;25.50;21.75;;;;;4.81;59.31;101860.81;4983193;28;45274;-48
2021/12/21 04:10:56;;;;;;;;;21.50;18.75;;;;;4.79;58.98;101852.06;4982585;28;45526;-46
2021/12/21 04:13:22;;;;;;;;;19.75;17.75;;;;;4.77;58.86;101852.00;4965510;28;47008;-47
2021/12/21 04:15:51;;;;;;;;;26.00;19.25;;;;;4.75;59.06;101848.47;4982616;28;45251;-43
2021/12/21 04:18:19;;;;;;;;;23.25;19.75;;;;;4.76;59.03;101846.78;4982938;28;45509;-43
2021/12/21 04:20:45;;;;;;;;;22.75;17.25;;;;;4.74;59.06;101854.53;4982471;28;45831;-44
2021/12/21 04:23:11;;;;;;;;;19.75;18.00;;;;;4.73;58.88;101847.56;4982844;28;46378;-45
2021/12/21 04:25:37;;;;;;;;;20.75;18.75;;;;;4.72;59.01;101851.88;4982547;28;45304;-44
2021/12/21 04:28:02;;;;;;;;;25.75;21.00;;;;;4.71;58.91;101844.03;4965401;28;45263;-45
2021/12/21 04:30:28;;;;;;;;;18.00;16.25;;;;;4.70;58.92;101842.25;4955885;28;45284;-47
2021/12/21 04:32:54;;;;;;;;;19.75;17.50;;;;;4.69;59.03;101843.09;4972301;28;45597;-47
2021/12/21 04:35:20;;;;;;;;;21.50;18.50;;;;;4.68;58.81;101843.97;4982611;28;45307;-45
2021/12/21 04:37:51;;;;;;;;;23.50;16.50;;;;;4.67;59.18;101844.78;4973873;28;45256;-44
2021/12/21 04:40:20;;;;;;;;;16.25;14.50;;;;;4.66;59.21;101846.50;4982387;28;45425;-44
2021/12/21 04:42:45;;;;;;;;;24.75;20.25;;;;;4.64;59.17;101844.69;4982195;28;46192;-44
2021/12/21 04:45:10;;;;;;;;;24.25;21.50;;;;;4.61;59.19;101834.22;4982481;28;45299;-44
2021/12/21 04:47:36;;;;;;;;;21.25;18.75;;;;;4.62;59.00;101838.59;4982679;28;45373;-45
2021/12/21 04:50:01;;;;;;;;;19.00;17.50;;;;;4.60;59.04;101835.91;4964713;28;45481;-45
2021/12/21 04:52:26;;;;;;;;;18.50;16.50;;;;;4.58;58.87;101836.72;4982337;28;46012;-45
2021/12/21 04:54:52;;;;;;;;;22.25;16.25;;;;;4.57;59.17;101846.25;4982252;28;45349;-45
2021/12/21 04:57:18;;;;;;;;;22.75;18.50;;;;;4.56;59.30;101840.16;4982442;28;45493;-46
2021/12/21 04:59:43;;;;;;;;;28.75;22.25;;;;;4.55;59.19;101843.63;4982063;28;45457;-46
2021/12/21 05:02:09;;;;;;;;;21.75;17.00;;;;;4.52;58.94;101829.63;4982035;28;46230;-45
2021/12/21 05:04:35;;;;;;;;;22.00;22.00;;;;;4.47;59.30;101831.22;4982116;28;45307;-44
2021/12/21 05:07:00;;;;;;;;;19.50;14.75;;;;;4.49;59.04;101835.63;4964653;28;45439;-44
2021/12/21 05:09:29;;;;;;;;;19.00;19.00;;;;;4.51;59.21;101840.88;4981839;28;45490;-44
2021/12/21 05:12:01;;;;;;;;;18.25;17.25;;;;;4.49;59.25;101846.03;4981845;28;47395;-45
2021/12/21 05:14:28;;;;;;;;;22.50;20.25;;;;;4.47;59.02;101850.31;4981913;28;45287;-47
2021/12/21 05:16:53;;;;;;;;;25.25;20.50;;;;;4.46;59.08;101858.09;4982148;28;45231;-46
2021/12/21 05:19:19;;;;;;;;;19.75;16.50;;;;;4.43;59.26;101843.25;4964384;28;45338;-45
2021/12/21 05:21:44;;;;;;;;;18.00;15.50;;;;;4.42;59.00;101849.31;4981902;28;45209;-44
2021/12/21 05:24:09;;;;;;;;;24.25;18.00;;;;;4.40;59.24;101850.97;4981598;28;45244;-46
2021/12/21 05:26:37;;;;;;;;;25.50;22.75;;;;;4.39;58.99;101847.50;4981733;28;45476;-46
2021/12/21 05:29:03;;;;;;;;;19.50;16.25;;;;;4.39;59.34;101857.03;4964060;28;45531;-45
2021/12/21 05:31:28;;;;;;;;;24.25;16.50;;;;;4.37;59.21;101848.28;4964436;28;45443;-45
2021/12/21 05:33:53;;;;;;;;;12.50;12.00;;;;;4.36;59.46;101849.13;4978279;28;46181;-47
2021/12/21 05:36:20;;;;;;;;;23.00;19.50;;;;;4.34;59.43;101851.69;4975712;28;45359;-44
2021/12/21 05:38:50;;;;;;;;;20.50;18.25;;;;;4.33;59.19;101854.25;4961760;28;45751;-48
2021/12/21 05:41:24;;;;;;;;;22.75;18.00;;;;;4.32;59.57;101853.34;4981237;28;46353;-48
2021/12/21 05:43:50;;;;;;;;;17.75;15.50;;;;;4.31;59.46;101858.50;4981553;28;45224;-44
2021/12/21 05:46:15;;;;;;;;;20.00;18.00;;;;;4.28;59.61;101850.63;4981658;28;45331;-47
2021/12/21 05:48:40;;;;;;;;;41.25;35.25;;;;;4.25;59.54;101850.53;4981361;28;45320;-46
2021/12/21 05:51:06;;;;;;;;;26.25;22.50;;;;;4.25;59.33;101845.31;4981439;28;46696;-44
2021/12/21 05:53:31;;;;;;;;;37.50;30.75;;;;;4.23;59.37;101837.47;4981336;28;45239;-48
2021/12/21 05:55:57;;;;;;;;;19.25;17.50;;;;;4.22;59.22;101844.38;4981234;28;45305;-45
2021/12/21 05:58:22;;;;;;;;;23.00;16.00;;;;;4.21;59.24;101849.53;4963649;28;45338;-46
2021/12/21 06:00:47;;;;;;;;;22.00;19.00;;;;;4.19;59.53;101846.91;4981309;28;45383;-46
2021/12/21 06:03:13;;;;;;;;;17.75;16.25;;;;;4.18;59.43;101847.72;4981206;28;45358;-47
2021/12/21 06:05:38;;;;;;;;;20.00;18.25;;;;;4.16;59.42;101852.00;4963842;28;45287;-44
2021/12/21 06:08:04;;;;;;;;;21.00;18.25;;;;;4.16;59.55;101853.72;4981043;28;45621;-45
2021/12/21 06:10:39;;;;;;;;;24.75;20.00;;;;;4.12;59.50;101852.75;4981035;28;45406;-48
2021/12/21 06:26:12;;;;;;;;;21.00;15.50;;;;;4.04;59.39;101856.84;4980790;28;45890;-48
2021/12/21 06:28:38;;;;;;;;;22.25;21.25;;;;;4.03;59.39;101860.28;4980851;28;45465;-45
2021/12/21 06:31:04;;;;;;;;;17.50;17.50;;;;;4.02;59.44;101866.31;4957604;28;45484;-45
2021/12/21 06:33:30;;;;;;;;;44.00;37.75;;;;;4.01;59.39;101864.56;4975357;28;45162;-44
2021/12/21 06:35:56;;;;;;;;;34.50;30.75;;;;;3.99;59.63;101855.84;4978098;28;45388;-46
2021/12/21 06:38:21;;;;;;;;;24.50;23.75;;;;;3.99;59.62;101861.03;4975253;28;45412;-44
2021/12/21 06:40:47;;;;;;;;;21.50;18.00;;;;;3.94;59.88;101852.19;4980581;28;46266;-45
2021/12/21 06:43:15;;;;;;;;;25.00;20.25;;;;;3.96;59.53;101856.63;4980546;28;45261;-45
2021/12/21 06:45:51;;;;;;;;;27.50;22.50;;;;;3.95;59.75;101854.84;4979666;28;45477;-45
2021/12/21 06:51:14;;;;;;;;;22.00;17.75;;;;;3.88;59.70;101842.50;4980634;28;45384;-45
2021/12/21 06:53:42;;;;;;;;;17.00;15.75;;;;;3.90;59.46;101848.63;4979243;28;45445;-46
2021/12/21 06:56:09;;;;;;;;;21.00;20.25;;;;;3.89;59.66;101855.53;4980390;28;45318;-45
2021/12/21 06:58:35;;;;;;;;;23.25;15.75;;;;;3.86;59.42;101847.66;4980639;28;45506;-45
2021/12/21 07:01:01;;;;;;;;;23.50;20.50;;;;;3.85;59.62;101848.47;4980364;28;46375;-48
2021/12/21 07:03:27;;;;;;;;;23.25;20.25;;;;;3.85;59.31;101858.88;4980544;28;45419;-48
2021/12/21 07:05:53;;;;;;;;;26.50;24.50;;;;;3.83;59.38;101857.94;4980507;28;45159;-48
2021/12/21 07:08:27;;;;;;;;;27.25;23.50;;;;;3.79;59.52;101853.50;4980422;28;45526;-47
2021/12/21 07:11:02;;;;;;;;;47.00;40.00;;;;;3.81;59.33;101858.72;4979958;28;45426;-45
2021/12/21 07:18:56;;;;;;;;;60.75;48.25;;;;;3.76;59.50;101853.41;4980224;28;45300;-45
2021/12/21 07:21:21;;;;;;;;;64.75;52.75;;;;;3.74;59.79;101850.72;4979989;28;46241;-46
2021/12/21 07:23:49;;;;;;;;;65.25;49.25;;;;;3.72;59.69;101856.72;4978713;28;45268;-45
2021/12/21 07:26:15;;;;;;;;;59.25;48.75;;;;;3.64;59.92;101837.41;4980140;28;45216;-48
2021/12/21 07:28:40;;;;;;;;;58.50;46.25;;;;;3.71;59.94;101854.94;4978795;28;45391;-45
2021/12/21 07:31:06;;;;;;;;;58.00;48.25;;;;;3.69;59.76;101856.63;4969322;28;46151;-45
2021/12/21 07:33:31;;;;;;;;;49.25;41.00;;;;;3.68;59.89;101865.25;4978292;28;45207;-46
2021/12/21 07:35:56;;;;;;;;;54.50;44.50;;;;;3.67;59.35;101860.91;4980509;28;45215;-47
2021/12/21 07:38:25;;;;;;;;;59.50;47.75;;;;;3.66;59.89;101864.31;4978133;28;45512;-44
2021/12/21 07:40:50;;;;;;;;;44.00;38.75;;;;;3.65;59.89;101862.53;4983009;28;46043;-45
2021/12/21 07:43:15;;;;;;;;;42.50;36.25;;;;;3.63;59.87;101865.09;4983333;28;45276;-46
2021/12/21 07:45:41;;;;;;;;;37.00;31.75;;;;;3.63;59.60;101870.31;4983709;28;45642;-46
2021/12/21 07:48:07;;;;;;;;;36.25;32.25;;;;;3.63;59.82;101861.63;4983182;28;45598;-45
2021/12/21 07:50:32;;;;;;;;;38.25;30.00;;;;;3.62;59.63;101859.88;4983183;28;45415;-45
2021/12/21 07:53:00;;;;;;;;;36.75;33.50;;;;;3.58;59.61;101854.59;4983183;28;45245;-45
2021/12/21 07:55:25;;;;;;;;;25.00;24.00;;;;;3.58;59.62;101859.78;4983456;28;45172;-45
2021/12/21 07:57:51;;;;;;;;;25.00;23.75;;;;;3.58;59.36;101858.88;4982853;28;45537;-44
2021/12/21 08:00:17;;;;;;;;;26.25;21.50;;;;;3.55;59.49;101861.41;4983122;28;45940;-44
2021/12/21 08:02:42;;;;;;;;;22.25;20.00;;;;;3.57;59.77;101870.09;4965421;28;45369;-45
2021/12/21 08:05:09;;;;;;;;;27.00;24.00;;;;;3.56;59.96;101874.44;4983363;28;45484;-44
2021/12/21 08:07:43;;;;;;;;;24.00;22.00;;;;;3.55;59.93;101875.25;4965307;28;45492;-45
2021/12/21 08:10:20;;;;;;;;;28.00;23.50;;;;;3.56;59.48;101869.22;4982656;28;46143;-44
2021/12/21 08:12:45;;;;;;;;;24.50;22.25;;;;;3.56;59.91;101877.03;4982667;28;45391;-45
2021/12/21 08:15:11;;;;;;;;;25.50;22.00;;;;;3.54;60.08;101877.81;4983205;28;45441;-47
2021/12/21 08:17:36;;;;;;;;;31.75;22.00;;;;;3.55;59.89;101877.84;4982670;28;45270;-48
2021/12/21 08:20:02;;;;;;;;;26.25;22.50;;;;;3.53;59.87;101882.13;4982603;28;45568;-45
2021/12/21 08:22:28;;;;;;;;;25.50;25.00;;;;;3.56;59.86;101881.38;4982221;28;45237;-49
2021/12/21 08:24:53;;;;;;;;;32.00;28.50;;;;;3.56;59.66;101873.56;4982603;28;45346;-48
2021/12/21 08:27:18;;;;;;;;;32.75;22.00;;;;;3.57;59.62;101878.81;4982115;28;45574;-45
2021/12/21 08:29:44;;;;;;;;;24.00;20.75;;;;;3.58;59.85;101880.56;4978929;28;46067;-49
2021/12/21 08:32:09;;;;;;;;;23.75;20.00;;;;;3.60;60.08;101874.50;4966186;28;45267;-45
2021/12/21 08:34:35;;;;;;;;;21.25;17.75;;;;;3.62;60.10;101878.06;4965388;28;45275;-45
2021/12/21 08:37:00;;;;;;;;;21.00;16.50;;;;;3.61;59.85;101865.91;4956525;28;45405;-46
2021/12/21 08:39:27;;;;;;;;;18.50;18.50;;;;;3.65;59.96;101872.94;4982076;28;45208;-45
2021/12/21 08:41:57;;;;;;;;;21.75;18.50;;;;;3.64;59.83;101872.06;4981873;28;45551;-45
2021/12/21 08:44:25;;;;;;;;;26.75;24.75;;;;;3.71;59.61;101879.25;4982545;28;45295;-45
2021/12/21 08:46:50;;;;;;;;;25.75;20.00;;;;;3.76;60.23;101883.72;4982379;28;45253;-49
2021/12/21 08:49:15;;;;;;;;;26.25;24.50;;;;;3.77;59.75;101882.88;4982513;28;45242;-49
2021/12/21 08:51:41;;;;;;;;;26.00;23.00;;;;;3.79;59.85;101879.50;4982085;28;45249;-45
2021/12/21 08:54:06;;;;;;;;;24.25;21.25;;;;;3.85;60.13;101879.69;4982621;28;45223;-45
2021/12/21 08:56:32;;;;;;;;;31.00;22.25;;;;;3.90;60.46;101883.31;4982170;28;45452;-44
2021/12/21 08:58:57;;;;;;;;;26.00;23.50;;;;;3.92;60.15;101869.47;4982303;28;46520;-45
2021/12/21 09:01:22;;;;;;;;;25.00;22.50;;;;;4.00;60.29;101883.59;4982142;28;45319;-44
2021/12/21 09:03:49;;;;;;;;;23.75;22.00;;;;;4.04;59.86;101873.34;4982273;28;45295;-44
2021/12/21 09:06:15;;;;;;;;;28.25;24.75;;;;;4.10;60.07;101876.97;4982017;28;45510;-43
2021/12/21 09:08:40;;;;;;;;;24.25;17.50;;;;;4.18;60.12;101883.28;4964387;28;48458;-45
2021/12/21 09:11:06;;;;;;;;;25.50;22.00;;;;;4.22;60.20;101878.22;4964190;28;45264;-45
2021/12/21 09:13:32;;;;;;;;;25.50;18.25;;;;;4.28;60.26;101879.25;4982305;28;45351;-44
2021/12/21 09:15:58;;;;;;;;;23.50;22.75;;;;;4.29;60.27;101870.59;4981969;28;45266;-46
2021/12/21 09:18:24;;;;;;;;;28.00;26.00;;;;;4.45;60.06;101883.22;4964277;28;47032;-45
2021/12/21 09:20:49;;;;;;;;;31.25;26.25;;;;;4.50;59.92;101888.56;4964334;28;45255;-45
2021/12/21 09:23:15;;;;;;;;;29.25;23.75;;;;;4.55;60.10;101890.47;4982111;28;45509;-48
2021/12/21 09:25:40;;;;;;;;;24.50;23.75;;;;;4.66;60.27;101893.38;4963910;28;45675;-45
2021/12/21 09:28:06;;;;;;;;;24.50;21.50;;;;;4.75;60.51;101891.88;4981776;28;45228;-49
2021/12/21 09:30:32;;;;;;;;;31.25;26.00;;;;;4.84;60.11;101897.34;4958911;28;45357;-49
2021/12/21 09:32:58;;;;;;;;;26.75;23.25;;;;;4.93;60.28;101883.69;4972351;28;45378;-48
2021/12/21 09:35:25;;;;;;;;;24.75;22.00;;;;;5.03;60.46;101881.38;4981600;28;45507;-49
2021/12/21 09:37:51;;;;;;;;;31.25;28.00;;;;;5.15;60.57;101890.38;4973221;28;45320;-47
2021/12/21 09:40:22;;;;;;;;;32.50;29.50;;;;;5.27;60.33;101893.31;4981370;28;45340;-49
2021/12/21 09:42:48;;;;;;;;;32.50;25.25;;;;;5.36;60.65;101885.72;4980434;28;45365;-46
2021/12/21 09:45:15;;;;;;;;;28.50;22.25;;;;;5.47;60.44;101891.22;4981497;28;45320;-44
2021/12/21 09:47:40;;;;;;;;;34.75;28.50;;;;;5.59;60.43;101892.34;4981381;28;47649;-50
2021/12/21 09:50:09;;;;;;;;;30.75;24.75;;;;;5.72;60.63;101899.63;4979997;28;45327;-50
2021/12/21 09:52:35;;;;;;;;;26.50;20.50;;;;;5.83;60.55;101898.16;4980541;28;45251;-47
2021/12/21 09:55:03;;;;;;;;;21.50;21.25;;;;;5.92;60.69;101899.22;4981185;28;45281;-47
2021/12/21 09:57:28;;;;;;;;;27.75;24.50;;;;;6.04;60.66;101899.56;4981113;28;46034;-47
2021/12/21 09:59:54;;;;;;;;;23.00;18.50;;;;;6.13;60.58;101899.75;4981119;28;45376;-51
2021/12/21 10:02:22;;;;;;;;;21.00;20.00;;;;;6.26;60.68;101908.72;4979987;28;45270;-45
2021/12/21 10:04:59;;;;;;;;;24.00;22.00;;;;;6.38;60.68;101915.97;4980974;28;45479;-48
2021/12/21 10:07:26;;;;;;;;;22.50;21.50;;;;;6.49;60.56;101917.09;4981020;28;46252;-45
2021/12/21 10:10:02;;;;;;;;;29.75;23.75;;;;;6.58;60.60;101916.41;4980996;28;45273;-47
2021/12/21 10:12:30;;;;;;;;;28.25;25.25;;;;;6.71;60.54;101919.28;4980906;28;45435;-46
2021/12/21 10:15:13;;;;;;;;;28.00;26.00;;;;;6.82;60.51;101913.41;4981183;28;45467;-47
2021/12/21 10:17:54;;;;;;;;;36.75;32.25;;;;;6.94;60.51;101910.16;4980887;28;46220;-47
2021/12/21 10:20:41;;;;;;;;;24.00;21.75;;;;;7.05;60.54;101907.75;4980891;28;45199;-49
2021/12/21 10:23:41;;;;;;;;;35.25;24.25;;;;;7.19;60.55;101914.97;4981084;28;45246;-44
2021/12/21 10:26:12;;;;;;;;;28.00;23.00;;;;;7.29;60.44;101914.28;4948574;28;45384;-45
2021/12/21 10:28:39;;;;;;;;;27.75;22.00;;;;;7.41;60.31;101905.75;4980617;28;45460;-45
2021/12/21 10:31:11;;;;;;;;;28.00;24.50;;;;;7.54;60.95;101899.91;4966118;28;45402;-47
2021/12/21 10:33:39;;;;;;;;;30.00;24.00;;;;;7.67;60.47;101900.09;4976278;28;45222;-45
2021/12/21 10:36:06;;;;;;;;;33.00;30.25;;;;;7.78;60.72;101895.94;4976404;28;45459;-45
2021/12/21 10:38:39;;;;;;;;;29.75;24.50;;;;;7.90;60.54;101895.22;4976538;28;47405;-50
2021/12/21 10:41:08;;;;;;;;;25.75;23.75;;;;;8.00;60.49;101884.06;4980291;28;45442;-46
2021/12/21 10:43:33;;;;;;;;;26.00;22.00;;;;;8.13;60.72;101893.81;4979281;28;45309;-44
2021/12/21 10:45:59;;;;;;;;;25.00;22.75;;;;;8.23;60.41;101892.22;4980690;28;45238;-44
2021/12/21 10:48:24;;;;;;;;;30.00;26.00;;;;;8.32;60.42;101894.09;4980544;28;45967;-45
2021/12/21 10:50:51;;;;;;;;;28.25;25.00;;;;;8.48;60.17;101894.31;4980497;28;45456;-47
2021/12/21 10:53:20;;;;;;;;;27.75;25.00;;;;;8.59;60.26;101890.09;4980527;28;45231;-45
2021/12/21 10:55:46;;;;;;;;;28.00;26.75;;;;;8.71;60.04;101885.00;4980192;28;45262;-47
2021/12/21 10:58:18;;;;;;;;;32.25;29.25;;;;;8.85;60.33;101886.91;4980218;28;46386;-44
2021/12/21 11:00:52;;;;;;;;;30.00;21.25;;;;;8.95;60.38;101875.66;4980503;28;45288;-45
2021/12/21 11:03:33;;;;;;;;;30.25;22.00;;;;;9.08;60.23;101872.31;4980072;28;45404;-47
2021/12/21 11:06:19;;;;;;;;;26.75;26.25;;;;;9.22;60.30;101882.03;4980235;28;45202;-47
2021/12/21 11:08:50;;;;;;;;;22.50;22.25;;;;;9.35;60.05;101881.31;4978455;28;46363;-45
2021/12/21 11:11:44;;;;;;;;;22.00;19.50;;;;;9.50;59.86;101871.81;4979945;28;45462;-46
2021/12/21 11:14:13;;;;;;;;;26.00;21.25;;;;;9.62;59.84;101877.13;4978930;28;45392;-47
2021/12/21 11:16:40;;;;;;;;;24.75;21.50;;;;;9.73;59.78;101880.72;4980379;28;45317;-47
2021/12/21 11:19:08;;;;;;;;;23.25;20.50;;;;;9.85;59.48;101884.31;4978716;28;45359;-47
2021/12/21 11:21:35;;;;;;;;;24.50;22.00;;;;;9.97;59.75;101880.91;4980169;28;45325;-46
2021/12/21 11:24:04;;;;;;;;;22.25;20.00;;;;;10.05;59.68;101877.47;4978714;28;45477;-49
2021/12/21 11:26:31;;;;;;;;;26.00;20.75;;;;;10.15;59.61;101874.88;4980009;28;45234;-48
2021/12/21 11:29:01;;;;;;;;;24.75;18.50;;;;;10.22;59.54;101866.16;4979909;28;46076;-46
2021/12/21 11:31:28;;;;;;;;;26.25;22.50;;;;;10.28;59.42;101858.31;4962792;28;45398;-47
2021/12/21 11:33:57;;;;;;;;;19.00;16.00;;;;;10.36;59.35;101861.91;4977696;28;45275;-49
2021/12/21 11:39:08;;;;;;;;;22.25;21.00;;;;;10.44;58.94;101853.16;4940980;28;45735;-48
2021/12/21 11:41:36;;;;;;;;;30.50;29.75;;;;;10.50;59.09;101858.44;4961974;28;45425;-47
2021/12/21 11:44:29;;;;;;;;;25.50;20.75;;;;;10.51;58.80;101849.69;4980154;28;45267;-48
2021/12/21 11:47:01;;;;;;;;;26.00;20.75;;;;;10.56;58.83;101846.22;4979684;28;45316;-48
2021/12/21 11:50:00;;;;;;;;;27.75;22.50;;;;;10.60;58.85;101839.19;4979609;28;46496;-45
2021/12/21 11:52:28;;;;;;;;;24.25;22.50;;;;;10.60;58.80;101828.69;4979869;28;45358;-47
2021/12/21 11:55:03;;;;;;;;;25.25;21.25;;;;;10.73;58.66;101841.00;4979474;28;45373;-46
2021/12/21 11:57:51;;;;;;;;;26.50;23.75;;;;;10.80;58.72;101841.88;4979614;28;45177;-48
2021/12/21 12:00:22;;;;;;;;;29.75;26.00;;;;;10.83;58.56;101841.91;4979848;28;45328;-45
2021/12/21 12:02:49;;;;;;;;;26.50;22.50;;;;;10.88;58.72;101845.41;4979571;28;45211;-49
2021/12/21 12:05:20;;;;;;;;;29.00;24.00;;;;;10.95;58.56;101830.53;4979734;28;45155;-47
2021/12/21 12:07:57;;;;;;;;;24.00;20.00;;;;;11.01;58.51;101829.66;4962074;28;45422;-47
2021/12/21 12:10:24;;;;;;;;;28.75;25.25;;;;;11.07;58.34;101832.31;4979243;28;45449;-48
2021/12/21 12:12:49;;;;;;;;;24.00;20.25;;;;;11.11;58.54;101830.56;4979469;28;45314;-46
2021/12/21 12:15:15;;;;;;;;;31.00;28.25;;;;;11.15;58.24;101834.94;4962941;28;45240;-45